Terminal Aerodrome Forecast
Issued by NWS Melbourne, FL

Home | Current Version | Previous Version | Text Only | Print | Product List | Glossary On
Versions: 1 2 3 4 5 6 7 8 9 10 11 12 13 14 15 16 17 18 19 20 21 22 23 24 25 26 27 28
000
FTUS42 KMLB 311736
TAFMCO
TAF
KMCO 311736Z 3118/0118 21011KT P6SM VCTS SCT035CB BKN060 BKN250
     FM010000 21006KT P6SM FEW025 SCT150 BKN250
     FM011500 19011KT P6SM VCTS SCT030CB BKN120=

USA.gov is the U.S. government's official web portal to all federal, state and local government web resources and services.